createdAt,value
2023-01-17T00:03:05.940Z,3.31
2023-01-17T00:07:29.763Z,3.28
2023-01-17T00:11:34.257Z,3.23
2023-01-17T00:15:39.866Z,3.16
2023-01-17T00:20:00.564Z,2.98
2023-01-17T00:24:21.274Z,2.79
2023-01-17T00:28:25.655Z,2.71
2023-01-17T00:32:27.629Z,2.67
2023-01-17T00:36:29.582Z,2.64
2023-01-17T00:40:32.047Z,2.64
2023-01-17T00:44:53.875Z,2.64
2023-01-17T00:49:14.499Z,2.63
2023-01-17T00:53:36.631Z,2.70
2023-01-17T00:57:57.093Z,2.76
2023-01-17T01:02:18.879Z,2.79
2023-01-17T01:06:39.620Z,2.88
2023-01-17T01:11:00.421Z,2.92
2023-01-17T01:15:21.086Z,2.92
2023-01-17T01:19:43.128Z,2.93
2023-01-17T01:24:03.648Z,2.92
2023-01-17T01:28:32.238Z,2.93
2023-01-17T01:32:53.184Z,2.96
2023-01-17T01:36:57.571Z,2.93
2023-01-17T01:41:00.662Z,2.92
2023-01-17T01:45:05.263Z,2.91
2023-01-17T01:49:17.921Z,2.90
2023-01-17T01:53:22.987Z,2.84
2023-01-17T01:57:31.094Z,2.81
2023-01-17T02:01:34.716Z,2.76
2023-01-17T02:05:38.072Z,2.75
2023-01-17T02:09:43.016Z,2.65
2023-01-17T02:13:46.160Z,2.64
2023-01-17T02:18:05.103Z,2.50
2023-01-17T02:22:32.997Z,2.43
2023-01-17T02:27:00.533Z,2.19
2023-01-17T02:31:13.486Z,2.12
2023-01-17T02:35:23.251Z,2.09
2023-01-17T02:39:33.713Z,2.07
2023-01-17T02:43:38.490Z,2.07
2023-01-17T02:47:43.233Z,2.04
2023-01-17T02:51:57.963Z,2.05
2023-01-17T02:56:07.165Z,2.04
2023-01-17T03:00:21.809Z,2.07
2023-01-17T03:04:32.571Z,2.13
2023-01-17T03:08:36.052Z,2.19
2023-01-17T03:12:40.928Z,2.24
2023-01-17T03:16:44.481Z,2.26
2023-01-17T03:20:48.882Z,2.27
2023-01-17T03:24:52.052Z,2.29
2023-01-17T03:28:55.089Z,2.29
2023-01-17T03:32:58.137Z,2.25
2023-01-17T03:37:02.898Z,2.22
2023-01-17T03:41:06.786Z,2.17
2023-01-17T03:45:10.808Z,2.19
2023-01-17T03:49:14.028Z,2.20
2023-01-17T03:53:18.499Z,2.13
2023-01-17T03:57:21.515Z,2.12
2023-01-17T04:01:24.679Z,2.08
2023-01-17T04:05:27.801Z,2.03
2023-01-17T04:09:34.065Z,1.97
2023-01-17T04:13:37.055Z,1.93
2023-01-17T04:17:40.419Z,1.93
2023-01-17T04:21:43.717Z,1.90
2023-01-17T04:25:48.192Z,1.90
2023-01-17T04:29:51.267Z,1.87
2023-01-17T04:33:54.304Z,1.84
2023-01-17T04:37:57.329Z,1.77
2023-01-17T04:42:02.886Z,1.74
2023-01-17T04:46:10.221Z,1.67
2023-01-17T04:50:13.616Z,1.59
2023-01-17T04:54:16.695Z,1.56
2023-01-17T04:58:21.294Z,1.45
2023-01-17T05:02:24.325Z,1.42
2023-01-17T05:06:27.406Z,1.43
2023-01-17T05:10:30.425Z,1.45
2023-01-17T05:14:34.790Z,1.43
2023-01-17T05:18:37.855Z,1.32
2023-01-17T05:22:40.911Z,1.30
2023-01-17T05:26:43.949Z,1.30
2023-01-17T05:30:48.997Z,1.23
2023-01-17T05:34:52.094Z,1.19
2023-01-17T05:38:55.119Z,1.06
2023-01-17T05:43:00.007Z,1.09
2023-01-17T05:47:05.188Z,1.11
2023-01-17T05:51:08.230Z,1.12
2023-01-17T05:55:11.390Z,1.13
2023-01-17T05:59:14.531Z,1.10
2023-01-17T06:03:19.191Z,1.11
2023-01-17T06:07:22.248Z,1.11
2023-01-17T06:11:25.502Z,0.99
2023-01-17T06:15:28.573Z,0.96
2023-01-17T06:19:32.957Z,0.92
2023-01-17T06:23:35.980Z,0.92
2023-01-17T06:27:39.013Z,0.83
2023-01-17T06:31:42.394Z,0.74
2023-01-17T06:35:50.438Z,0.84
2023-01-17T06:39:53.627Z,0.68
2023-01-17T06:43:57.208Z,0.74
2023-01-17T06:48:01.239Z,0.65
2023-01-17T06:52:06.019Z,0.65
2023-01-17T06:56:09.838Z,0.62
2023-01-17T07:00:14.070Z,0.49
2023-01-17T07:04:17.059Z,0.48
2023-01-17T07:08:21.493Z,0.47
2023-01-17T07:12:24.597Z,0.42
2023-01-17T07:16:27.675Z,0.34
2023-01-17T07:20:30.989Z,0.42
2023-01-17T07:24:37.532Z,0.36
2023-01-17T07:28:40.745Z,0.22
2023-01-17T07:32:43.837Z,0.30
2023-01-17T07:36:48.633Z,0.25
2023-01-17T07:40:52.998Z,0.17
2023-01-17T07:44:56.044Z,0.16
2023-01-17T07:48:59.038Z,0.19
2023-01-17T07:53:02.469Z,0.17
2023-01-17T07:57:07.377Z,0.10
2023-01-17T08:01:12.475Z,0.14
2023-01-17T08:05:15.765Z,0.33
2023-01-17T08:09:18.785Z,0.56
2023-01-17T08:13:23.596Z,0.90
2023-01-17T08:17:26.590Z,1.29
2023-01-17T08:21:29.729Z,1.62
2023-01-17T08:25:35.374Z,2.11
2023-01-17T08:29:42.161Z,2.45
2023-01-17T08:33:45.234Z,2.45
2023-01-17T08:37:48.949Z,2.61
2023-01-17T08:41:51.988Z,2.46
2023-01-17T08:45:57.022Z,2.22
2023-01-17T08:50:00.405Z,2.15
2023-01-17T08:54:03.599Z,2.30
2023-01-17T08:58:06.642Z,2.64
2023-01-17T09:02:15.229Z,2.79
2023-01-17T09:06:18.801Z,3.34
2023-01-17T09:10:23.364Z,3.24
2023-01-17T09:14:26.624Z,2.79
2023-01-17T09:18:32.170Z,3.79
2023-01-17T09:22:36.146Z,4.59
2023-01-17T09:26:39.599Z,3.66
2023-01-17T09:30:42.626Z,3.82
2023-01-17T09:34:47.859Z,3.40
2023-01-17T09:38:51.014Z,2.98
2023-01-17T09:42:58.140Z,2.71
2023-01-17T09:47:09.212Z,2.74
2023-01-17T09:51:19.348Z,3.21
2023-01-17T09:55:22.760Z,3.78
2023-01-17T09:59:35.624Z,3.88
2023-01-17T10:03:45.781Z,4.51
2023-01-17T10:08:07.359Z,5.58
2023-01-17T10:12:23.923Z,5.44
2023-01-17T10:16:38.270Z,5.01
2023-01-17T10:20:47.661Z,5.08
2023-01-17T10:25:21.216Z,5.88
2023-01-17T10:29:28.453Z,6.37
2023-01-17T10:33:36.991Z,7.04
2023-01-17T10:37:42.560Z,6.25
2023-01-17T10:41:55.284Z,6.80
2023-01-17T10:45:59.104Z,6.19
2023-01-17T10:50:05.331Z,6.53
2023-01-17T10:54:17.211Z,6.38
2023-01-17T10:58:21.982Z,7.42
2023-01-17T11:02:26.966Z,7.68
2023-01-17T11:06:33.238Z,7.61
2023-01-17T11:10:48.298Z,7.95
2023-01-17T11:15:25.878Z,8.04
2023-01-17T11:19:32.499Z,7.59
2023-01-17T11:23:35.589Z,7.72
2023-01-17T11:27:41.968Z,7.55
2023-01-17T11:31:46.464Z,8.57
2023-01-17T11:35:49.486Z,7.67
2023-01-17T11:39:52.555Z,8.00
2023-01-17T11:43:57.083Z,8.04
2023-01-17T11:48:24.837Z,8.21
2023-01-17T11:52:36.070Z,9.37
2023-01-17T11:56:40.730Z,8.80
2023-01-17T12:00:47.135Z,9.03
2023-01-17T12:04:58.154Z,10.00
2023-01-17T12:09:13.472Z,9.53
2023-01-17T12:13:44.503Z,9.58
2023-01-17T12:18:13.676Z,8.94
2023-01-17T12:22:35.139Z,9.22
2023-01-17T12:26:41.473Z,10.58
2023-01-17T12:30:59.129Z,12.09
2023-01-17T12:35:09.786Z,10.41
2023-01-17T12:39:16.874Z,11.51
2023-01-17T12:43:26.907Z,11.57
2023-01-17T12:47:34.671Z,11.12
2023-01-17T12:51:41.722Z,11.22
2023-01-17T12:55:53.176Z,9.85
2023-01-17T13:00:03.725Z,10.09
2023-01-17T13:04:18.015Z,8.64
2023-01-17T13:08:31.603Z,7.78
2023-01-17T13:12:39.672Z,9.74
2023-01-17T13:16:47.423Z,8.56
2023-01-17T13:21:10.531Z,9.29
2023-01-17T13:25:27.101Z,8.68
2023-01-17T13:29:42.077Z,7.66
2023-01-17T13:33:59.747Z,8.06
2023-01-17T13:38:17.910Z,6.69
2023-01-17T13:42:26.681Z,5.56
2023-01-17T13:46:33.232Z,6.31
2023-01-17T13:50:53.049Z,7.54
2023-01-17T13:54:57.839Z,9.73
2023-01-17T13:59:06.599Z,10.04
2023-01-17T14:03:12.686Z,7.60
2023-01-17T14:07:25.499Z,5.88
2023-01-17T14:11:28.717Z,5.98
2023-01-17T14:15:35.613Z,5.77
2023-01-17T14:19:41.484Z,5.20
2023-01-17T14:23:56.149Z,5.01
2023-01-17T14:28:03.014Z,4.62
2023-01-17T14:32:10.705Z,4.77
2023-01-17T14:36:28.185Z,5.73
2023-01-17T14:40:33.862Z,6.74
2023-01-17T14:44:36.996Z,6.63
2023-01-17T14:48:41.403Z,6.70
2023-01-17T14:52:46.291Z,6.40
2023-01-17T14:56:49.391Z,6.57
2023-01-17T15:00:56.236Z,6.85
2023-01-17T15:04:59.811Z,7.17
2023-01-17T15:09:10.350Z,7.54
2023-01-17T15:13:21.346Z,7.76
2023-01-17T15:17:28.720Z,7.35
2023-01-17T15:21:35.527Z,6.46
2023-01-17T15:25:40.627Z,5.78
2023-01-17T15:29:45.414Z,5.33
2023-01-17T15:33:51.496Z,5.59
2023-01-17T15:37:59.036Z,5.49
2023-01-17T15:42:07.184Z,4.98
2023-01-17T15:46:23.160Z,4.24
2023-01-17T15:50:31.870Z,3.38
2023-01-17T15:54:43.364Z,2.98
2023-01-17T15:58:50.813Z,2.52
2023-01-17T16:02:57.212Z,2.28
2023-01-17T16:07:19.855Z,1.98
2023-01-17T16:11:22.848Z,1.73
2023-01-17T16:15:28.422Z,1.74
2023-01-17T16:19:31.530Z,1.45
2023-01-17T16:23:34.588Z,1.31
2023-01-17T16:27:37.946Z,1.09
2023-01-17T16:31:42.396Z,0.88
2023-01-17T16:35:45.683Z,0.79
2023-01-17T16:39:48.690Z,0.65
2023-01-17T16:44:01.211Z,0.54
2023-01-17T16:48:06.709Z,0.38
2023-01-17T16:52:09.808Z,0.28
2023-01-17T16:56:15.144Z,0.24
2023-01-17T17:00:19.954Z,0.11
2023-01-17T17:04:24.766Z,0.01
2023-01-17T17:08:30.223Z,-0.06
2023-01-17T17:12:33.647Z,-0.15
2023-01-17T17:16:36.814Z,-0.22
2023-01-17T17:20:41.349Z,-0.19
2023-01-17T17:24:44.579Z,-0.35
2023-01-17T17:28:52.614Z,-0.35
2023-01-17T17:32:55.678Z,-0.38
2023-01-17T17:37:00.740Z,-0.49
2023-01-17T17:41:10.223Z,-0.49
2023-01-17T17:45:13.293Z,-0.52
2023-01-17T17:49:17.272Z,-0.62
2023-01-17T17:53:21.848Z,-0.71
2023-01-17T17:57:24.916Z,-0.72
2023-01-17T18:01:29.084Z,-0.76
2023-01-17T18:05:32.237Z,-0.86
2023-01-17T18:09:36.707Z,-0.95
2023-01-17T18:13:39.809Z,-0.98
2023-01-17T18:17:42.937Z,-1.00
2023-01-17T18:21:46.157Z,-1.08
2023-01-17T18:25:50.668Z,-1.11
2023-01-17T18:29:53.690Z,-1.13
2023-01-17T18:33:58.301Z,-1.10
2023-01-17T18:38:01.560Z,-1.18
2023-01-17T18:42:06.326Z,-1.29
2023-01-17T18:46:10.641Z,-1.36
2023-01-17T18:50:13.697Z,-1.42
2023-01-17T18:54:17.561Z,-1.44
2023-01-17T18:58:22.280Z,-1.39
2023-01-17T19:02:25.648Z,-1.42
2023-01-17T19:06:31.724Z,-1.56
2023-01-17T19:10:34.806Z,-1.54
2023-01-17T19:14:39.219Z,-1.62
2023-01-17T19:18:42.812Z,-1.62
2023-01-17T19:22:45.996Z,-1.64
2023-01-17T19:26:51.287Z,-1.64
2023-01-17T19:31:04.272Z,-1.75
2023-01-17T19:35:09.072Z,-1.63
2023-01-17T19:39:12.253Z,-1.52
2023-01-17T19:43:15.327Z,-1.45
2023-01-17T19:47:19.756Z,-1.73
2023-01-17T19:51:23.295Z,-1.78
2023-01-17T19:55:26.370Z,-1.81
2023-01-17T19:59:29.659Z,-1.85
2023-01-17T20:03:34.177Z,-1.87
2023-01-17T20:07:37.395Z,-1.93
2023-01-17T20:11:42.263Z,-1.91
2023-01-17T20:15:45.387Z,-1.85
2023-01-17T20:19:49.806Z,-1.92
2023-01-17T20:23:54.472Z,-1.88
2023-01-17T20:27:58.238Z,-1.94
2023-01-17T20:32:02.096Z,-1.99
2023-01-17T20:36:11.053Z,-1.92
2023-01-17T20:40:14.736Z,-2.03
2023-01-17T20:44:18.733Z,-2.12
2023-01-17T20:48:22.547Z,-2.17
2023-01-17T20:52:28.020Z,-2.20
2023-01-17T20:56:34.719Z,-2.17
2023-01-17T21:00:37.960Z,-2.28
2023-01-17T21:04:40.976Z,-1.94
2023-01-17T21:08:47.062Z,-2.02
2023-01-17T21:12:50.081Z,-1.77
2023-01-17T21:16:53.230Z,-1.91
2023-01-17T21:20:56.300Z,-2.17
2023-01-17T21:25:00.928Z,-2.31
2023-01-17T21:29:03.940Z,-2.36
2023-01-17T21:33:09.843Z,-2.45
2023-01-17T21:37:14.420Z,-2.45
2023-01-17T21:41:21.078Z,-2.32
2023-01-17T21:45:26.812Z,-2.22
2023-01-17T21:49:31.170Z,-1.98
2023-01-17T21:53:36.864Z,-2.10
2023-01-17T21:57:59.995Z,-2.26
2023-01-17T22:02:04.653Z,-2.24
2023-01-17T22:06:10.904Z,-2.31
2023-01-17T22:10:15.722Z,-2.14
2023-01-17T22:14:22.055Z,-2.23
2023-01-17T22:18:26.413Z,-1.92
2023-01-17T22:22:34.715Z,-2.07
2023-01-17T22:26:41.764Z,-2.37
2023-01-17T22:30:48.204Z,-2.45
2023-01-17T22:34:51.900Z,-2.41
2023-01-17T22:38:57.545Z,-2.56
2023-01-17T22:43:01.975Z,-2.53
2023-01-17T22:47:08.128Z,-2.52
2023-01-17T22:51:14.584Z,-2.44
2023-01-17T22:55:19.851Z,-2.47
2023-01-17T22:59:24.683Z,-2.51
2023-01-17T23:03:30.595Z,-2.66
2023-01-17T23:07:43.241Z,-2.80
2023-01-17T23:11:51.196Z,-2.88
2023-01-17T23:16:24.434Z,-2.74
2023-01-17T23:20:30.245Z,-2.64
2023-01-17T23:24:34.691Z,-2.47
2023-01-17T23:28:38.738Z,-2.30
2023-01-17T23:32:46.719Z,-2.29
2023-01-17T23:36:51.552Z,-2.37
2023-01-17T23:41:20.370Z,-2.49
2023-01-17T23:45:26.916Z,-2.69
2023-01-17T23:49:31.773Z,-2.84
2023-01-17T23:53:39.350Z,-2.88
2023-01-17T23:57:44.621Z,-2.98
